Terminal Aerodrome Forecast
Issued by NWS

Home | Current Version | Previous Version | Graphics & Text | Print | Product List | Glossary Off
Versions: 1 2 3 4 5 6 7 8 9 10 11 12 13 14 15 16 17 18 19 20

000
FTUS43 KMPX 261759 CCA
TAFAXN
TAF COR
KAXN 261759Z 2618/2718 02005KT P6SM SCT018 BKN035
      TEMPO 2618/2620 BKN020
     FM270200 35005KT P6SM OVC025
     FM271400 03002KT P6SM SCT030 OVC100=

USA.gov is the U.S. government's official web portal to all federal, state and local government web resources and services.